Monday, September 24, 2018, 9:20 PM GMT
Back to Local

CXMI, McNabs Island , N. S.

Location: , , Canada Lat: 44.6
Local Time: 9:20 PM GMT (21:20 GMT) Lon: -63.533
Time Zone: GMT Elev: 49 ft

Show me the last for .
Show Coded

Time T Td Feel RH Dir Speed Gust Alt SLP Vis Weather Sky Remarks
2018-09-24 21:00 54 30 - 38 350° 6 - - 30.57 0 None
2018-09-24 20:00 56 29 - 35 340° 7 - - 30.55 0 None
2018-09-24 19:00 57 27 - 31 320° 6 - - 30.54 0 None
2018-09-24 18:00 56 27 - 31 360° 8 - - 30.54 0 None
2018-09-24 16:00 55 31 - 39 340° 7 - - 30.55 0 None
2018-09-24 15:00 53 32 - 43 340° 7 - - 30.56 0 None
2018-09-24 14:00 51 29 - 41 360° 10 - - 30.55 0 Peak wind: 21 mph (19 kts) from 350° at 04 min
2018-09-24 13:00 50 29 - 44 360° 12 18 - 30.53 0 None
2018-09-24 12:00 48 33 41 55 360° 9 20 - 30.51 0 Peak wind: 19 mph (17 kts) from 20° at 54 min
2018-09-24 11:00 46 31 41 56 360° 9 - - 30.48 0 None
2018-09-24 10:00 46 34 39 62 360° 9 17 - 30.43 0 None
2018-09-24 09:00 47 36 43 65 350° 9 - - 30.40 0 Peak wind: 20 mph (18 kts) from 350° at 19 min
2018-09-24 08:00 47 37 41 65 350° 9 18 - 30.37 0 Peak wind: 23 mph (20 kts) from 340° at 06 min
2018-09-24 07:00 49 39 42 68 360° 12 20 - 30.34 0 Peak wind: 25 mph (22 kts) from 0° at 33 min
2018-09-24 06:00 49 42 42 76 360° 12 21 - 30.32 0 Peak wind: 20 mph (18 kts) from 350° at 56 min
2018-09-24 05:00 53 45 - 74 360° 10 20 - 30.29 0 Peak wind: 19 mph (17 kts) from 350° at 59 min
2018-09-24 04:00 54 42 - 64 340° 8 - - 30.27 0 None
2018-09-24 03:00 54 40 - 60 330° 7 - - 30.26 0 None
2018-09-24 02:00 55 40 - 57 330° 7 - - 30.25 0 None
2018-09-24 01:00 56 44 - 64 340° 6 - - 30.23 0 None
2018-09-24 00:00 57 46 - 67 350° 6 - - 30.21 0 None
2018-09-23 23:00 60 49 - 69 250° 8 - - 30.19 0 None
2018-09-23 22:00 60 48 - 62 220° 7 - - 30.17 0 None

Support USWX by starting your Amazon purchase here.